createdAt,value
2018-07-01T00:01:09.396Z,17.71
2018-07-01T00:02:40.969Z,17.59
2018-07-01T00:04:12.543Z,17.66
2018-07-01T00:05:44.113Z,17.68
2018-07-01T00:07:15.686Z,17.66
2018-07-01T00:08:47.261Z,17.58
2018-07-01T00:10:18.831Z,17.56
2018-07-01T00:11:50.403Z,17.30
2018-07-01T00:13:22.074Z,17.21
2018-07-01T00:14:53.546Z,17.03
2018-07-01T00:16:25.120Z,17.12
2018-07-01T00:17:56.692Z,17.16
2018-07-01T00:19:28.265Z,17.12
2018-07-01T00:20:59.837Z,17.14
2018-07-01T00:22:31.409Z,17.16
2018-07-01T00:24:02.980Z,17.15
2018-07-01T00:25:34.562Z,17.08
2018-07-01T00:27:06.124Z,17.22
2018-07-01T00:28:37.696Z,17.21
2018-07-01T00:30:09.269Z,17.15
2018-07-01T00:31:41.993Z,17.07
2018-07-01T00:33:12.412Z,17.07
2018-07-01T00:34:43.985Z,17.00
2018-07-01T00:36:15.556Z,16.97
2018-07-01T00:37:47.127Z,17.04
2018-07-01T00:39:18.700Z,17.00
2018-07-01T00:40:50.276Z,16.96
2018-07-01T00:42:21.844Z,16.94
2018-07-01T00:43:53.417Z,16.83
2018-07-01T00:45:24.987Z,16.81
2018-07-01T00:46:56.559Z,16.82
2018-07-01T00:48:28.132Z,16.89
2018-07-01T00:49:59.804Z,16.83
2018-07-01T00:51:31.278Z,16.82
2018-07-01T00:53:02.848Z,16.78
2018-07-01T00:54:34.420Z,16.81
2018-07-01T00:56:05.990Z,16.75
2018-07-01T00:57:37.562Z,16.75
2018-07-01T00:59:09.133Z,16.70
2018-07-01T01:00:40.706Z,16.73
2018-07-01T01:02:12.528Z,16.67
2018-07-01T01:03:43.849Z,16.67
2018-07-01T01:05:15.422Z,16.63
2018-07-01T01:06:46.993Z,16.64
2018-07-01T01:08:18.664Z,16.52
2018-07-01T01:09:50.139Z,16.58
2018-07-01T01:11:21.708Z,16.58
2018-07-01T01:12:53.279Z,16.64
2018-07-01T01:14:24.852Z,16.70
2018-07-01T01:15:56.422Z,16.68
2018-07-01T01:17:27.994Z,16.71
2018-07-01T01:18:59.567Z,16.75
2018-07-01T01:20:31.138Z,16.79
2018-07-01T01:22:02.816Z,16.93
2018-07-01T01:23:34.281Z,17.01
2018-07-01T01:25:05.929Z,17.14
2018-07-01T01:26:37.523Z,17.01
2018-07-01T01:28:09.197Z,17.06
2018-07-01T01:29:40.567Z,16.98
2018-07-01T01:31:12.138Z,16.97
2018-07-01T01:32:43.962Z,16.91
2018-07-01T01:34:15.281Z,16.85
2018-07-01T01:35:46.852Z,16.78
2018-07-01T01:37:18.425Z,16.81
2018-07-01T01:38:49.995Z,16.82
2018-07-01T01:40:21.568Z,17.07
2018-07-01T01:41:53.138Z,16.97
2018-07-01T01:43:24.710Z,17.03
2018-07-01T01:44:56.383Z,17.08
2018-07-01T01:46:27.854Z,17.07
2018-07-01T01:47:59.424Z,17.04
2018-07-01T01:49:30.996Z,17.07
2018-07-01T01:51:02.568Z,17.11
2018-07-01T01:52:34.139Z,17.15
2018-07-01T01:54:05.711Z,17.16
2018-07-01T01:55:37.282Z,17.18
2018-07-01T01:57:08.853Z,17.22
2018-07-01T01:58:40.425Z,17.37
2018-07-01T02:00:11.998Z,17.22
2018-07-01T02:01:43.569Z,17.19
2018-07-01T02:03:15.991Z,17.15
2018-07-01T02:04:46.712Z,17.21
2018-07-01T02:06:18.283Z,17.03
2018-07-01T02:07:49.855Z,17.19
2018-07-01T02:09:21.426Z,17.19
2018-07-01T02:10:52.996Z,17.16
2018-07-01T02:12:24.569Z,17.25
2018-07-01T02:13:56.145Z,17.22
2018-07-01T02:15:27.715Z,17.14
2018-07-01T02:16:59.284Z,17.08
2018-07-01T02:18:30.856Z,17.01
2018-07-01T02:20:02.426Z,16.97
2018-07-01T02:21:34.098Z,16.88
2018-07-01T02:23:05.571Z,16.78
2018-07-01T02:24:37.140Z,16.73
2018-07-01T02:26:08.712Z,16.76
2018-07-01T02:27:40.285Z,16.82
2018-07-01T02:29:11.855Z,16.78
2018-07-01T02:30:43.427Z,16.68
2018-07-01T02:32:14.998Z,16.75
2018-07-01T02:33:46.574Z,16.67
2018-07-01T02:35:18.227Z,16.68
2018-07-01T02:36:49.713Z,16.61
2018-07-01T02:38:21.284Z,16.58
2018-07-01T02:39:52.955Z,16.48
2018-07-01T02:41:24.427Z,16.52
2018-07-01T02:42:55.998Z,16.46
2018-07-01T02:44:27.569Z,16.46
2018-07-01T02:45:59.150Z,16.39
2018-07-01T02:47:30.713Z,16.46
2018-07-01T02:49:02.283Z,16.49
2018-07-01T02:50:33.855Z,16.46
2018-07-01T02:52:05.429Z,16.43
2018-07-01T02:53:37.047Z,16.50
2018-07-01T02:55:08.569Z,16.46
2018-07-01T02:56:40.141Z,16.46
2018-07-01T02:58:11.812Z,16.56
2018-07-01T02:59:43.284Z,16.52
2018-07-01T03:01:14.857Z,16.45
2018-07-01T03:02:46.427Z,16.39
2018-07-01T03:04:17.998Z,16.42
2018-07-01T03:05:49.573Z,16.35
2018-07-01T03:07:21.139Z,16.42
2018-07-01T03:08:52.711Z,16.33
2018-07-01T03:10:24.282Z,16.41
2018-07-01T03:11:55.853Z,16.30
2018-07-01T03:13:27.427Z,16.33
2018-07-01T03:14:58.996Z,16.35
2018-07-01T03:16:30.667Z,16.25
2018-07-01T03:18:02.137Z,16.23
2018-07-01T03:19:33.710Z,16.25
2018-07-01T03:21:05.280Z,16.23
2018-07-01T03:22:36.850Z,16.30
2018-07-01T03:24:08.421Z,16.21
2018-07-01T03:25:39.992Z,16.28
2018-07-01T03:27:11.563Z,16.28
2018-07-01T03:28:43.136Z,16.21
2018-07-01T03:30:14.708Z,16.15
2018-07-01T03:31:46.276Z,16.39
2018-07-01T03:33:17.848Z,16.41
2018-07-01T03:34:50.019Z,16.43
2018-07-01T03:36:20.989Z,16.39
2018-07-01T03:37:52.560Z,16.39
2018-07-01T03:39:24.131Z,16.45
2018-07-01T03:40:55.703Z,16.45
2018-07-01T03:42:27.275Z,16.48
2018-07-01T03:43:58.846Z,16.45
2018-07-01T03:45:30.415Z,16.52
2018-07-01T03:47:01.985Z,16.50
2018-07-01T03:48:33.555Z,16.49
2018-07-01T03:50:05.181Z,16.52
2018-07-01T03:51:36.698Z,16.45
2018-07-01T03:53:08.375Z,16.35
2018-07-01T03:54:39.840Z,16.45
2018-07-01T03:56:11.411Z,16.38
2018-07-01T03:57:43.025Z,16.48
2018-07-01T03:59:14.552Z,16.48
2018-07-01T04:00:46.124Z,16.43
2018-07-01T04:02:17.695Z,16.58
2018-07-01T04:03:49.266Z,16.60
2018-07-01T04:05:21.087Z,16.63
2018-07-01T04:06:52.407Z,16.73
2018-07-01T04:08:23.978Z,16.76
2018-07-01T04:09:55.550Z,16.70
2018-07-01T04:11:27.223Z,16.71
2018-07-01T04:12:58.691Z,16.79
2018-07-01T04:14:30.262Z,16.68
2018-07-01T04:16:01.833Z,16.75
2018-07-01T04:17:33.405Z,16.75
2018-07-01T04:19:04.977Z,16.71
2018-07-01T04:20:36.550Z,16.76
2018-07-01T04:22:08.117Z,16.57
2018-07-01T04:23:39.689Z,16.60
2018-07-01T04:25:11.261Z,16.60
2018-07-01T04:26:42.831Z,16.57
2018-07-01T04:28:14.402Z,16.61
2018-07-01T04:29:46.074Z,16.53
2018-07-01T04:31:17.545Z,16.45
2018-07-01T04:32:49.117Z,16.49
2018-07-01T04:34:20.687Z,16.46
2018-07-01T04:35:52.259Z,16.48
2018-07-01T04:37:23.831Z,16.43
2018-07-01T04:38:55.401Z,16.35
2018-07-01T04:40:26.972Z,16.42
2018-07-01T04:41:58.545Z,16.48
2018-07-01T04:43:30.114Z,16.42
2018-07-01T04:45:01.687Z,16.43
2018-07-01T04:46:33.257Z,16.38
2018-07-01T04:48:04.928Z,16.38
2018-07-01T04:49:36.401Z,16.42
2018-07-01T04:51:07.969Z,16.34
2018-07-01T04:52:39.541Z,16.35
2018-07-01T04:54:11.114Z,16.39
2018-07-01T04:55:42.684Z,16.23
2018-07-01T04:57:14.253Z,16.28
2018-07-01T04:58:45.824Z,16.31
2018-07-01T05:00:17.395Z,16.27
2018-07-01T05:01:49.018Z,16.27
2018-07-01T05:03:20.537Z,16.17
2018-07-01T05:04:52.109Z,16.14
2018-07-01T05:06:23.780Z,16.23
2018-07-01T05:07:55.249Z,16.21
2018-07-01T05:09:26.823Z,16.17
2018-07-01T05:10:58.392Z,16.09
2018-07-01T05:12:29.965Z,16.15
2018-07-01T05:14:01.547Z,16.02
2018-07-01T05:15:33.104Z,16.09
2018-07-01T05:17:04.739Z,16.11
2018-07-01T05:18:36.247Z,16.14
2018-07-01T05:20:07.818Z,16.02
2018-07-01T05:21:39.390Z,16.12
2018-07-01T05:23:10.961Z,16.07
2018-07-01T05:24:42.631Z,15.97
2018-07-01T05:26:14.102Z,15.89
2018-07-01T05:27:45.672Z,15.83
2018-07-01T05:29:17.245Z,15.78
2018-07-01T05:30:48.814Z,15.75
2018-07-01T05:32:20.386Z,15.76
2018-07-01T05:33:51.957Z,15.68
2018-07-01T05:35:23.528Z,15.74
2018-07-01T05:36:55.099Z,15.64
2018-07-01T05:38:26.670Z,15.74
2018-07-01T05:39:58.240Z,15.64
2018-07-01T05:41:29.812Z,15.62
2018-07-01T05:43:01.483Z,15.54
2018-07-01T05:44:32.953Z,15.53
2018-07-01T05:46:04.524Z,15.53
2018-07-01T05:47:36.095Z,15.54
2018-07-01T05:49:07.667Z,15.53
2018-07-01T05:50:39.237Z,15.51
2018-07-01T05:52:10.808Z,15.60
2018-07-01T05:53:42.415Z,15.54
2018-07-01T05:55:13.949Z,15.47
2018-07-01T05:56:45.520Z,15.43
2018-07-01T05:58:17.090Z,15.35
2018-07-01T05:59:48.661Z,15.31
2018-07-01T06:01:20.333Z,15.28
2018-07-01T06:02:51.803Z,15.25
2018-07-01T06:04:23.376Z,15.23
2018-07-01T06:05:54.947Z,15.29
2018-07-01T06:07:26.515Z,15.31
2018-07-01T06:08:58.088Z,15.23
2018-07-01T06:10:29.689Z,15.19
2018-07-01T06:12:01.227Z,15.27
2018-07-01T06:13:32.797Z,15.17
2018-07-01T06:15:04.367Z,15.11
2018-07-01T06:16:35.998Z,14.99
2018-07-01T06:18:07.509Z,14.95
2018-07-01T06:19:39.178Z,14.96
2018-07-01T06:21:10.649Z,14.98
2018-07-01T06:22:42.223Z,14.98
2018-07-01T06:24:13.789Z,14.89
2018-07-01T06:25:45.361Z,14.86
2018-07-01T06:27:16.934Z,14.95
2018-07-01T06:28:48.501Z,14.94
2018-07-01T06:30:20.071Z,14.96
2018-07-01T06:31:51.642Z,14.92
2018-07-01T06:33:23.211Z,14.92
2018-07-01T06:34:54.792Z,14.92
2018-07-01T06:36:26.353Z,14.96
2018-07-01T06:37:58.276Z,14.86
2018-07-01T06:39:29.495Z,14.83
2018-07-01T06:41:01.063Z,14.88
2018-07-01T06:42:32.635Z,14.96
2018-07-01T06:44:04.203Z,14.83
2018-07-01T06:45:35.773Z,14.78
2018-07-01T06:47:07.345Z,14.78
2018-07-01T06:48:38.913Z,14.77
2018-07-01T06:50:10.485Z,14.78
2018-07-01T06:51:42.054Z,14.72
2018-07-01T06:53:13.624Z,14.68
2018-07-01T06:54:54.360Z,14.55
2018-07-01T06:56:16.868Z,14.57
2018-07-01T06:57:48.334Z,14.54
2018-07-01T06:59:19.904Z,14.50
2018-07-01T07:00:51.480Z,14.36
2018-07-01T07:02:23.048Z,14.36
2018-07-01T07:03:54.615Z,14.37
2018-07-01T07:05:26.184Z,14.33
2018-07-01T07:06:57.756Z,14.29
2018-07-01T07:08:29.324Z,14.32
2018-07-01T07:10:00.894Z,14.28
2018-07-01T07:11:32.466Z,14.27
2018-07-01T07:13:04.034Z,14.18
2018-07-01T07:14:35.705Z,14.21
2018-07-01T07:16:07.183Z,14.22
2018-07-01T07:17:38.743Z,14.20
2018-07-01T07:19:10.314Z,14.22
2018-07-01T07:20:41.884Z,14.15
2018-07-01T07:22:13.454Z,14.27
2018-07-01T07:23:45.025Z,14.24
2018-07-01T07:25:16.593Z,14.46
2018-07-01T07:26:48.263Z,14.37
2018-07-01T07:28:19.732Z,14.42
2018-07-01T07:29:51.302Z,14.37
2018-07-01T07:31:22.871Z,14.33
2018-07-01T07:32:54.541Z,14.22
2018-07-01T07:34:26.011Z,14.24
2018-07-01T07:35:57.581Z,14.22
2018-07-01T07:37:29.151Z,14.18
2018-07-01T07:39:00.973Z,14.22
2018-07-01T07:40:32.291Z,14.17
2018-07-01T07:42:03.861Z,14.18
2018-07-01T07:43:35.434Z,14.02
2018-07-01T07:45:07.013Z,14.10
2018-07-01T07:46:38.569Z,14.18
2018-07-01T07:48:10.141Z,14.20
2018-07-01T07:49:41.708Z,14.12
2018-07-01T07:51:13.378Z,14.17
2018-07-01T07:52:44.903Z,14.14
2018-07-01T07:54:16.473Z,14.09
2018-07-01T07:55:48.043Z,14.03
2018-07-01T07:57:19.762Z,14.07
2018-07-01T07:58:51.182Z,14.06
2018-07-01T08:00:22.751Z,13.99
2018-07-01T08:01:54.323Z,14.07
2018-07-01T08:03:25.836Z,13.91
2018-07-01T08:04:57.404Z,13.97
2018-07-01T08:06:28.975Z,13.92
2018-07-01T08:08:00.544Z,13.92
2018-07-01T08:09:32.464Z,13.92
2018-07-01T08:11:03.683Z,13.89
2018-07-01T08:12:35.253Z,13.89
2018-07-01T08:14:06.822Z,13.92
2018-07-01T08:15:38.393Z,13.88
2018-07-01T08:17:09.962Z,13.87
2018-07-01T08:18:41.531Z,13.85
2018-07-01T08:20:13.100Z,13.87
2018-07-01T08:21:44.670Z,13.82
2018-07-01T08:23:16.239Z,13.84
2018-07-01T08:24:47.809Z,13.81
2018-07-01T08:26:19.380Z,13.71
2018-07-01T08:27:51.148Z,13.75
2018-07-01T08:29:22.518Z,13.71
2018-07-01T08:30:54.095Z,13.70
2018-07-01T08:32:25.656Z,13.73
2018-07-01T08:33:57.227Z,13.75
2018-07-01T08:35:28.796Z,13.81
2018-07-01T08:37:00.366Z,13.79
2018-07-01T08:38:31.937Z,13.66
2018-07-01T08:40:03.503Z,13.70
2018-07-01T08:41:35.074Z,13.71
2018-07-01T08:43:06.643Z,13.75
2018-07-01T08:44:38.213Z,13.71
2018-07-01T08:46:09.927Z,13.70
2018-07-01T08:47:41.352Z,13.88
2018-07-01T08:49:12.920Z,13.84
2018-07-01T08:50:44.490Z,13.85
2018-07-01T08:52:16.081Z,13.82
2018-07-01T08:53:47.628Z,13.88
2018-07-01T08:55:19.197Z,13.75
2018-07-01T08:56:50.767Z,13.82
2018-07-01T08:58:22.436Z,13.87
2018-07-01T08:59:53.906Z,13.89
2018-07-01T09:01:25.475Z,13.81
2018-07-01T09:02:57.047Z,13.78
2018-07-01T09:04:28.714Z,13.71
2018-07-01T09:06:00.186Z,13.71
2018-07-01T09:07:31.752Z,13.70
2018-07-01T09:09:03.323Z,13.64
2018-07-01T09:10:35.146Z,13.57
2018-07-01T09:12:06.462Z,13.73
2018-07-01T09:13:38.031Z,13.62
2018-07-01T09:15:09.600Z,13.67
2018-07-01T09:16:41.170Z,13.64
2018-07-01T09:18:12.742Z,13.57
2018-07-01T09:19:44.308Z,13.62
2018-07-01T09:21:15.877Z,13.66
2018-07-01T09:22:47.546Z,13.64
2018-07-01T09:24:19.016Z,13.63
2018-07-01T09:25:50.587Z,13.66
2018-07-01T09:27:22.154Z,13.70
2018-07-01T09:28:54.127Z,13.69
2018-07-01T09:30:25.293Z,13.69
2018-07-01T09:31:56.862Z,13.66
2018-07-01T09:33:28.432Z,13.62
2018-07-01T09:35:00.007Z,13.54
2018-07-01T09:36:31.571Z,13.49
2018-07-01T09:38:03.139Z,13.48
2018-07-01T09:39:34.709Z,13.62
2018-07-01T09:41:06.668Z,13.55
2018-07-01T09:42:37.848Z,13.52
2018-07-01T09:44:09.416Z,13.42
2018-07-01T09:45:40.986Z,13.49
2018-07-01T09:47:12.559Z,13.48
2018-07-01T09:48:44.124Z,13.44
2018-07-01T09:50:15.965Z,13.55
2018-07-01T09:51:47.263Z,13.55
2018-07-01T09:53:18.832Z,13.55
2018-07-01T09:54:50.401Z,13.51
2018-07-01T09:56:21.973Z,13.54
2018-07-01T09:57:53.539Z,13.54
2018-07-01T09:59:25.234Z,13.59
2018-07-01T10:00:56.722Z,13.73
2018-07-01T10:02:28.249Z,13.75
2018-07-01T10:05:31.386Z,13.73
2018-07-01T10:07:02.956Z,13.82
2018-07-01T10:08:34.525Z,13.85
2018-07-01T10:10:06.297Z,13.85
2018-07-01T10:11:37.914Z,13.97
2018-07-01T10:13:09.236Z,14.09
2018-07-01T10:14:40.802Z,14.09
2018-07-01T10:16:12.372Z,14.06
2018-07-01T10:17:44.042Z,14.24
2018-07-01T10:19:16.043Z,14.36
2018-07-01T10:20:47.081Z,14.60
2018-07-01T10:22:18.651Z,14.80
2018-07-01T10:23:50.220Z,14.94
2018-07-01T10:26:53.364Z,15.29
2018-07-01T10:28:24.930Z,15.54
2018-07-01T10:29:56.502Z,15.62
2018-07-01T10:31:28.073Z,15.84
2018-07-01T10:32:59.642Z,16.15
2018-07-01T10:34:31.420Z,16.33
2018-07-01T10:36:02.934Z,16.58
2018-07-01T10:39:06.128Z,17.00
2018-07-01T10:42:09.830Z,17.34
2018-07-01T10:43:40.641Z,17.64
2018-07-01T10:45:12.213Z,17.78
2018-07-01T10:48:15.356Z,18.07
2018-07-01T10:51:18.529Z,18.36
2018-07-01T10:52:50.077Z,18.47
2018-07-01T10:54:22.481Z,18.73
2018-07-01T10:55:53.221Z,19.02
2018-07-01T10:57:24.793Z,19.31
2018-07-01T10:58:56.569Z,19.31
2018-07-01T11:00:27.941Z,19.44
2018-07-01T11:01:59.819Z,19.69
2018-07-01T11:03:31.090Z,19.94
2018-07-01T11:05:02.666Z,20.16
2018-07-01T11:06:34.543Z,20.43
2018-07-01T11:08:05.814Z,20.51
2018-07-01T11:09:37.394Z,20.97
2018-07-01T11:11:08.967Z,21.19
2018-07-01T11:12:40.892Z,21.09
2018-07-01T11:15:43.901Z,21.46
2018-07-01T11:17:15.270Z,21.44
2018-07-01T11:21:50.010Z,22.40
2018-07-01T11:23:21.579Z,22.30
2018-07-01T11:24:53.157Z,22.22
2018-07-01T11:26:24.733Z,22.18
2018-07-01T11:27:56.715Z,22.46
2018-07-01T11:29:27.888Z,22.62
2018-07-01T11:30:59.773Z,22.55
2018-07-01T11:32:31.045Z,22.80
2018-07-01T11:34:03.030Z,22.54
2018-07-01T11:38:37.891Z,22.79
2018-07-01T11:40:08.936Z,23.20
2018-07-01T11:41:40.515Z,23.68
2018-07-01T11:46:15.352Z,22.98
2018-07-01T11:47:46.831Z,22.79
2018-07-01T11:49:18.614Z,22.90
2018-07-01T11:52:21.949Z,23.68
2018-07-01T11:53:53.146Z,23.79
2018-07-01T11:55:25.636Z,23.84
2018-07-01T11:56:56.306Z,24.12
2018-07-01T12:00:00.182Z,23.76
2018-07-01T12:01:31.047Z,23.88
2018-07-01T12:03:02.625Z,23.19
2018-07-01T12:04:34.205Z,23.42
2018-07-01T12:06:05.886Z,23.84
2018-07-01T12:07:37.366Z,23.68
2018-07-01T12:09:09.882Z,24.09
2018-07-01T12:10:40.524Z,23.94
2018-07-01T12:13:44.217Z,22.67
2018-07-01T12:15:15.469Z,22.33
2018-07-01T12:16:46.850Z,21.74
2018-07-01T12:18:18.429Z,22.10
2018-07-01T12:19:50.012Z,22.76
2018-07-01T12:21:21.590Z,21.84
2018-07-01T12:24:25.505Z,22.90
2018-07-01T12:25:56.431Z,23.00
2018-07-01T12:27:27.913Z,22.73
2018-07-01T12:29:00.027Z,23.15
2018-07-01T12:30:31.075Z,23.38
2018-07-01T12:36:37.395Z,23.28
2018-07-01T12:38:08.976Z,22.30
2018-07-01T12:39:40.557Z,22.79
2018-07-01T12:42:44.021Z,22.94
2018-07-01T12:44:15.300Z,23.68
2018-07-01T12:45:46.886Z,24.08
2018-07-01T12:47:18.664Z,22.49
2018-07-01T12:50:21.624Z,22.33
2018-07-01T12:51:53.204Z,22.52
2018-07-01T12:53:24.987Z,22.67
2018-07-01T12:54:56.571Z,21.77
2018-07-01T12:56:28.023Z,21.14
2018-07-01T12:57:59.838Z,21.37
2018-07-01T12:59:31.109Z,21.64
2018-07-01T13:01:02.691Z,22.46
2018-07-01T13:02:34.695Z,22.20
2018-07-01T13:05:37.432Z,22.21
2018-07-01T13:07:09.014Z,22.51
2018-07-01T13:08:40.880Z,22.45
2018-07-01T13:13:15.336Z,23.42
2018-07-01T13:14:47.120Z,24.27
2018-07-01T13:17:50.081Z,24.27
2018-07-01T13:19:21.661Z,23.57
2018-07-01T13:20:54.200Z,24.12
2018-07-01T13:22:24.824Z,24.46
2018-07-01T13:25:27.987Z,24.99
2018-07-01T13:26:59.569Z,24.61
2018-07-01T13:28:31.455Z,24.34
2018-07-01T13:30:02.735Z,24.22
2018-07-01T13:31:34.316Z,24.32
2018-07-01T13:33:05.898Z,24.10
2018-07-01T13:34:37.480Z,23.73
2018-07-01T13:36:09.595Z,24.77
2018-07-01T13:37:41.177Z,24.18
2018-07-01T13:42:15.693Z,25.33
2018-07-01T13:43:46.974Z,24.90
2018-07-01T13:45:18.765Z,23.72
2018-07-01T13:46:50.344Z,24.30
2018-07-01T13:48:21.724Z,25.23
2018-07-01T13:49:53.343Z,25.02
2018-07-01T13:51:24.888Z,25.57
2018-07-01T13:52:56.469Z,24.99
2018-07-01T13:54:28.052Z,25.13
2018-07-01T13:55:59.639Z,25.61
2018-07-01T13:57:31.438Z,25.24
2018-07-01T13:59:02.800Z,25.90
2018-07-01T14:02:06.066Z,26.63
2018-07-01T14:03:37.549Z,26.48
2018-07-01T14:05:09.132Z,26.01
2018-07-01T14:06:40.777Z,25.79
2018-07-01T14:08:12.906Z,25.95
2018-07-01T14:09:44.231Z,26.33
2018-07-01T14:11:15.773Z,26.52
2018-07-01T14:12:47.048Z,26.09
2018-07-01T14:14:18.631Z,25.91
2018-07-01T14:15:50.647Z,25.99
2018-07-01T14:17:21.855Z,25.80
2018-07-01T14:18:53.382Z,25.38
2018-07-01T14:20:25.066Z,25.64
2018-07-01T14:21:56.551Z,26.36
2018-07-01T14:23:28.132Z,26.70
2018-07-01T14:24:59.715Z,26.72
2018-07-01T14:26:31.509Z,26.67
2018-07-01T14:29:34.670Z,26.69
2018-07-01T14:31:06.050Z,25.95
2018-07-01T14:34:09.218Z,26.54
2018-07-01T14:37:12.385Z,25.65
2018-07-01T14:38:44.170Z,24.93
2018-07-01T14:40:15.653Z,25.05
2018-07-01T14:41:47.136Z,26.10
2018-07-01T14:43:18.721Z,26.30
2018-07-01T14:46:22.089Z,27.06
2018-07-01T14:47:53.472Z,27.54
2018-07-01T14:49:25.093Z,27.24
2018-07-01T14:50:56.639Z,27.13
2018-07-01T14:52:28.263Z,26.81
2018-07-01T14:53:59.806Z,26.26
2018-07-01T14:55:31.391Z,26.92
2018-07-01T14:57:02.979Z,26.73
2018-07-01T14:58:34.659Z,26.60
2018-07-01T15:00:06.350Z,27.07
2018-07-01T15:01:37.727Z,26.63
2018-07-01T15:04:40.895Z,26.72
2018-07-01T15:06:12.479Z,27.60
2018-07-01T15:07:44.265Z,27.18
2018-07-01T15:10:47.231Z,27.28
2018-07-01T15:12:18.818Z,27.65
2018-07-01T15:15:21.983Z,27.34
2018-07-01T15:16:53.976Z,28.07
2018-07-01T15:18:25.455Z,28.12
2018-07-01T15:19:56.737Z,28.06
2018-07-01T15:21:28.320Z,27.77
2018-07-01T15:22:59.905Z,27.69
2018-07-01T15:24:31.491Z,27.65
2018-07-01T15:26:03.079Z,27.81
2018-07-01T15:27:34.658Z,27.65
2018-07-01T15:29:06.508Z,27.43
2018-07-01T15:30:37.827Z,28.43
2018-07-01T15:32:09.412Z,29.63
2018-07-01T15:33:40.997Z,29.04
2018-07-01T15:35:12.684Z,29.16
2018-07-01T15:36:44.172Z,29.43
2018-07-01T15:38:15.752Z,29.06
2018-07-01T15:39:47.340Z,29.49
2018-07-01T15:41:19.124Z,29.00
2018-07-01T15:42:50.712Z,28.78
2018-07-01T15:44:22.092Z,28.30
2018-07-01T15:45:53.981Z,28.11
2018-07-01T15:47:25.467Z,28.40
2018-07-01T15:48:56.848Z,28.59
2018-07-01T15:50:28.635Z,28.68
2018-07-01T15:53:32.314Z,28.48
2018-07-01T15:55:03.255Z,27.82
2018-07-01T15:56:35.307Z,28.76
2018-07-01T15:58:06.359Z,29.19
2018-07-01T16:02:41.115Z,28.30
2018-07-01T16:04:12.705Z,28.58
2018-07-01T16:05:44.286Z,29.52
2018-07-01T16:07:16.174Z,28.98
2018-07-01T16:08:48.312Z,28.58
2018-07-01T16:10:19.041Z,28.00
2018-07-01T16:11:50.671Z,27.50
2018-07-01T16:13:22.211Z,27.99
2018-07-01T16:16:25.686Z,28.24
2018-07-01T16:19:28.552Z,28.80
2018-07-01T16:21:00.137Z,28.64
2018-07-01T16:24:03.408Z,28.92
2018-07-01T16:27:06.477Z,29.73
2018-07-01T16:28:38.267Z,29.61
2018-07-01T16:30:10.584Z,28.64
2018-07-01T16:31:41.236Z,29.21
2018-07-01T16:33:12.818Z,29.85
2018-07-01T16:34:44.403Z,30.04
2018-07-01T16:37:47.777Z,29.92
2018-07-01T16:39:19.160Z,30.29
2018-07-01T16:40:50.832Z,29.41
2018-07-01T16:42:22.330Z,29.65
2018-07-01T16:43:54.018Z,29.11
2018-07-01T16:45:25.703Z,29.70
2018-07-01T16:50:00.459Z,29.68
2018-07-01T16:53:03.428Z,30.15
2018-07-01T16:54:35.014Z,30.65
2018-07-01T16:56:06.599Z,30.00
2018-07-01T16:57:38.185Z,29.89
2018-07-01T16:59:10.378Z,30.77
2018-07-01T17:00:41.356Z,29.76
2018-07-01T17:03:44.931Z,29.53
2018-07-01T17:05:16.336Z,29.74
2018-07-01T17:06:48.005Z,29.16
2018-07-01T17:08:20.224Z,29.24
2018-07-01T17:09:50.868Z,29.16
2018-07-01T17:11:22.657Z,29.39
2018-07-01T17:12:54.039Z,29.53
2018-07-01T17:14:25.930Z,30.02
2018-07-01T17:19:00.478Z,29.95
2018-07-01T17:20:31.963Z,29.79
2018-07-01T17:22:03.549Z,29.43
2018-07-01T17:23:35.134Z,29.92
2018-07-01T17:25:06.719Z,30.27
2018-07-01T17:28:10.422Z,30.67
2018-07-01T17:29:41.474Z,29.85
2018-07-01T17:31:13.361Z,29.55
2018-07-01T17:32:44.642Z,29.57
2018-07-01T17:34:16.227Z,30.24
2018-07-01T17:35:47.812Z,30.75
2018-07-01T17:37:19.498Z,30.89
2018-07-01T17:38:51.515Z,31.35
2018-07-01T17:40:22.567Z,30.83
2018-07-01T17:41:54.152Z,30.62
2018-07-01T17:43:25.738Z,30.27
2018-07-01T17:46:29.437Z,30.11
2018-07-01T17:48:00.490Z,30.04
2018-07-01T17:49:32.077Z,30.24
2018-07-01T17:51:03.705Z,30.43
2018-07-01T17:54:07.138Z,29.78
2018-07-01T17:55:38.516Z,29.70
2018-07-01T17:57:09.999Z,30.16
2018-07-01T17:58:41.789Z,29.82
2018-07-01T18:00:13.166Z,29.92
2018-07-01T18:01:44.750Z,29.49
2018-07-01T18:03:16.334Z,28.93
2018-07-01T18:04:47.918Z,30.35
2018-07-01T18:06:19.705Z,30.86
2018-07-01T18:07:51.086Z,30.24
2018-07-01T18:10:54.254Z,31.02
2018-07-01T18:13:57.827Z,31.39
2018-07-01T18:15:29.006Z,30.91
2018-07-01T18:17:00.593Z,31.56
2018-07-01T18:18:32.174Z,32.15
2018-07-01T18:21:44.901Z,33.37
2018-07-01T18:26:10.095Z,33.41
2018-07-01T18:30:45.450Z,33.09
2018-07-01T18:32:16.435Z,33.04
2018-07-01T18:35:19.601Z,31.38
2018-07-01T18:36:51.185Z,31.36
2018-07-01T18:38:22.769Z,30.51
2018-07-01T18:39:54.353Z,29.48
2018-07-01T18:41:26.141Z,28.33
2018-07-01T18:42:57.731Z,28.58
2018-07-01T18:44:29.105Z,29.18
2018-07-01T18:46:00.925Z,28.27
2018-07-01T18:47:32.280Z,28.55
2018-07-01T18:50:35.539Z,29.68
2018-07-01T18:52:07.023Z,30.43
2018-07-01T18:53:38.605Z,30.91
2018-07-01T18:55:10.216Z,30.99
2018-07-01T18:56:41.770Z,30.94
2018-07-01T18:59:45.139Z,29.55
2018-07-01T19:01:17.056Z,29.86
2018-07-01T19:02:48.102Z,28.81
2018-07-01T19:04:19.888Z,27.90
2018-07-01T19:07:23.384Z,26.70
2018-07-01T19:08:54.533Z,26.63
2018-07-01T19:13:29.483Z,26.52
2018-07-01T19:15:01.294Z,26.40
2018-07-01T19:16:32.343Z,26.37
2018-07-01T19:19:35.505Z,26.36
2018-07-01T19:21:08.506Z,26.25
2018-07-01T19:22:39.235Z,26.12
2018-07-01T19:24:10.451Z,26.40
2018-07-01T19:27:13.511Z,28.07
2018-07-01T19:28:45.031Z,28.27
2018-07-01T19:31:48.152Z,26.65
2018-07-01T19:33:19.982Z,26.10
2018-07-01T19:34:51.847Z,25.65
2018-07-01T19:37:54.678Z,24.78
2018-07-01T19:44:00.894Z,24.12
2018-07-01T19:45:32.381Z,24.12
2018-07-01T19:47:04.185Z,23.85
2018-07-01T19:48:35.531Z,23.75
2018-07-01T19:50:07.109Z,23.78
2018-07-01T19:51:38.688Z,23.75
2018-07-01T19:53:10.571Z,23.94
2018-07-01T19:54:41.848Z,24.12
2018-07-01T19:56:13.424Z,24.46
2018-07-01T19:59:16.586Z,24.45
2018-07-01T20:02:19.838Z,24.53
2018-07-01T20:05:22.899Z,24.39
2018-07-01T20:06:54.472Z,24.25
2018-07-01T20:08:26.051Z,24.13
2018-07-01T20:09:57.628Z,23.78
2018-07-01T20:11:29.206Z,23.46
2018-07-01T20:13:00.784Z,23.43
2018-07-01T20:14:32.366Z,23.50
2018-07-01T20:16:03.940Z,23.50
2018-07-01T20:19:07.300Z,23.17
2018-07-01T20:20:38.772Z,23.17
2018-07-01T20:22:10.249Z,22.90
2018-07-01T20:23:41.830Z,22.83
2018-07-01T20:25:13.403Z,22.67
2018-07-01T20:26:44.981Z,22.75
2018-07-01T20:28:16.558Z,22.64
2018-07-01T20:29:48.134Z,22.60
2018-07-01T20:31:19.715Z,22.57
2018-07-01T20:32:51.287Z,22.42
2018-07-01T20:34:22.914Z,22.36
2018-07-01T20:35:54.452Z,22.24
2018-07-01T20:37:26.063Z,22.09
2018-07-01T20:38:57.693Z,21.96
2018-07-01T20:40:29.169Z,21.84
2018-07-01T20:42:00.746Z,21.77
2018-07-01T20:43:32.321Z,21.82
2018-07-01T20:45:03.908Z,21.61
2018-07-01T20:46:35.473Z,21.58
2018-07-01T20:48:07.048Z,21.56
2018-07-01T20:49:38.625Z,21.43
2018-07-01T20:51:10.200Z,21.34
2018-07-01T20:52:41.776Z,21.12
2018-07-01T20:54:13.351Z,21.03
2018-07-01T20:55:44.927Z,20.82
2018-07-01T20:57:16.603Z,20.70
2018-07-01T20:58:48.078Z,20.62
2018-07-01T21:00:19.653Z,20.47
2018-07-01T21:01:51.229Z,20.24
2018-07-01T21:03:22.904Z,20.28
2018-07-01T21:04:54.382Z,20.31
2018-07-01T21:06:25.954Z,20.28
2018-07-01T21:07:57.533Z,20.18
2018-07-01T21:09:29.104Z,20.28
2018-07-01T21:11:00.679Z,20.31
2018-07-01T21:12:32.276Z,20.16
2018-07-01T21:14:03.836Z,20.18
2018-07-01T21:15:35.504Z,20.13
2018-07-01T21:17:06.978Z,20.20
2018-07-01T21:18:38.554Z,20.17
2018-07-01T21:20:10.129Z,20.14
2018-07-01T21:21:41.702Z,20.18
2018-07-01T21:23:13.276Z,20.18
2018-07-01T21:24:44.851Z,20.21
2018-07-01T21:26:16.426Z,20.10
2018-07-01T21:27:48.000Z,19.99
2018-07-01T21:29:19.578Z,19.92
2018-07-01T21:30:51.149Z,19.78
2018-07-01T21:32:22.724Z,19.71
2018-07-01T21:33:54.398Z,19.68
2018-07-01T21:35:25.873Z,19.54
2018-07-01T21:36:57.459Z,19.88
2018-07-01T21:38:29.058Z,20.17